createdAt,value
2023-02-23T00:02:14.187Z,9.07
2023-02-23T00:07:20.100Z,9.00
2023-02-23T00:12:24.113Z,9.60
2023-02-23T00:17:26.791Z,8.73
2023-02-23T00:22:29.209Z,9.20
2023-02-23T00:27:31.682Z,8.93
2023-02-23T00:32:35.225Z,9.10
2023-02-23T00:37:38.252Z,8.63
2023-02-23T00:42:45.278Z,9.40
2023-02-23T00:47:48.963Z,9.60
2023-02-23T00:52:51.484Z,10.03
2023-02-23T00:57:53.923Z,10.00
2023-02-23T01:02:56.391Z,9.90
2023-02-23T01:07:58.831Z,9.60
2023-02-23T01:13:01.490Z,9.70
2023-02-23T01:18:05.574Z,9.67
2023-02-23T01:23:10.697Z,9.50
2023-02-23T01:28:14.959Z,8.60
2023-02-23T01:33:17.578Z,11.03
2023-02-23T01:38:20.053Z,9.53
2023-02-23T01:43:26.393Z,10.97
2023-02-23T01:48:35.347Z,11.67
2023-02-23T01:53:44.453Z,10.67
2023-02-23T01:58:52.989Z,10.87
2023-02-23T02:03:58.580Z,10.43
2023-02-23T02:09:07.331Z,10.70
2023-02-23T02:14:17.399Z,9.20
2023-02-23T02:19:37.923Z,8.53
2023-02-23T02:25:12.652Z,7.87
2023-02-23T02:30:24.108Z,9.10
2023-02-23T02:35:47.450Z,9.97
2023-02-23T02:41:04.436Z,9.60
2023-02-23T02:46:18.296Z,7.83
2023-02-23T02:51:49.074Z,8.27
2023-02-23T02:56:57.828Z,7.70
2023-02-23T03:02:21.003Z,7.73
2023-02-23T03:07:52.762Z,7.20
2023-02-23T03:13:34.963Z,7.23
2023-02-23T03:19:09.246Z,6.73
2023-02-23T03:24:50.349Z,6.70
2023-02-23T03:30:24.670Z,6.63
2023-02-23T03:35:58.631Z,6.10
2023-02-23T03:41:21.223Z,5.93
2023-02-23T03:46:46.002Z,5.63
2023-02-23T03:52:12.213Z,6.23
2023-02-23T03:57:38.275Z,5.50
2023-02-23T04:03:02.143Z,5.30
2023-02-23T04:08:28.013Z,5.90
2023-02-23T04:13:34.387Z,5.37
2023-02-23T04:18:39.894Z,5.40
2023-02-23T04:23:43.519Z,4.90
2023-02-23T04:28:46.557Z,4.93
2023-02-23T04:33:49.054Z,4.80
2023-02-23T04:38:51.634Z,5.47
2023-02-23T04:43:54.092Z,5.90
2023-02-23T04:48:56.604Z,5.00
2023-02-23T04:53:59.638Z,5.30
2023-02-23T04:59:02.388Z,4.90
2023-02-23T05:04:05.004Z,4.90
2023-02-23T05:09:07.429Z,5.00
2023-02-23T05:14:12.600Z,6.50
2023-02-23T05:19:15.230Z,5.53
2023-02-23T05:24:19.229Z,7.37
2023-02-23T05:29:21.869Z,5.10
2023-02-23T05:34:24.668Z,5.80
2023-02-23T05:39:27.225Z,4.73
2023-02-23T05:44:30.000Z,4.70
2023-02-23T05:49:32.507Z,4.80
2023-02-23T05:54:35.003Z,4.40
2023-02-23T05:59:37.554Z,4.87
2023-02-23T06:04:40.777Z,4.90
2023-02-23T06:09:44.596Z,4.57
2023-02-23T06:14:47.487Z,8.27
2023-02-23T06:19:49.959Z,4.87
2023-02-23T06:24:52.425Z,5.97
2023-02-23T06:29:55.129Z,7.60
2023-02-23T06:34:57.791Z,7.20
2023-02-23T06:40:00.675Z,9.50
2023-02-23T06:45:04.355Z,9.80
2023-02-23T06:50:08.824Z,8.70
2023-02-23T06:55:13.291Z,9.37
2023-02-23T07:00:17.454Z,9.07
2023-02-23T07:05:19.940Z,5.53
2023-02-23T07:10:22.709Z,5.73
2023-02-23T07:15:25.698Z,5.17
2023-02-23T07:20:28.323Z,5.50
2023-02-23T07:25:31.440Z,5.03
2023-02-23T07:30:33.891Z,5.53
2023-02-23T07:35:36.363Z,6.73
2023-02-23T07:40:39.687Z,6.43
2023-02-23T07:45:45.540Z,6.00
2023-02-23T07:50:48.968Z,6.20
2023-02-23T07:56:01.364Z,5.33
2023-02-23T08:01:04.459Z,5.67
2023-02-23T08:06:07.407Z,4.77
2023-02-23T08:11:10.509Z,5.30
2023-02-23T08:16:13.169Z,5.27
2023-02-23T08:21:15.879Z,5.50
2023-02-23T08:26:18.505Z,5.70
2023-02-23T08:31:24.414Z,5.30
2023-02-23T08:36:27.701Z,4.67
2023-02-23T08:41:30.330Z,4.93
2023-02-23T08:46:33.362Z,4.67
2023-02-23T08:51:35.870Z,4.97
2023-02-23T08:56:39.080Z,4.87
2023-02-23T09:01:43.802Z,4.30
2023-02-23T09:06:47.696Z,4.70
2023-02-23T09:11:50.369Z,4.53
2023-02-23T09:16:53.006Z,4.73
2023-02-23T09:21:55.195Z,4.60
2023-02-23T09:26:57.881Z,4.53
2023-02-23T09:32:00.360Z,4.20
2023-02-23T09:37:03.571Z,4.30
2023-02-23T09:42:32.212Z,4.13
2023-02-23T09:47:55.755Z,4.10
2023-02-23T09:53:40.882Z,3.80
2023-02-23T09:58:43.450Z,3.53
2023-02-23T10:04:36.062Z,3.43
2023-02-23T10:10:28.174Z,3.47
2023-02-23T10:16:22.166Z,4.70
2023-02-23T10:21:45.478Z,6.60
2023-02-23T10:27:00.884Z,5.77
2023-02-23T10:32:15.209Z,5.83
2023-02-23T10:37:20.044Z,5.57
2023-02-23T10:42:32.082Z,5.50
2023-02-23T10:47:36.613Z,4.00
2023-02-23T10:52:49.129Z,3.83
2023-02-23T10:58:08.398Z,5.70
2023-02-23T11:03:25.504Z,5.77
2023-02-23T11:08:34.603Z,4.90
2023-02-23T11:13:49.824Z,4.80
2023-02-23T11:19:04.990Z,4.70
2023-02-23T11:24:31.070Z,4.50
2023-02-23T11:29:46.957Z,4.33
2023-02-23T11:35:21.176Z,5.73
2023-02-23T11:40:31.883Z,6.47
2023-02-23T11:45:46.188Z,6.03
2023-02-23T11:50:50.516Z,6.83
2023-02-23T11:55:58.050Z,6.50
2023-02-23T12:01:17.331Z,5.50
2023-02-23T12:06:39.234Z,5.30
2023-02-23T12:11:48.777Z,5.37
2023-02-23T12:17:00.392Z,5.20
2023-02-23T12:22:29.585Z,6.03
2023-02-23T12:27:45.308Z,4.80
2023-02-23T12:33:21.699Z,4.30
2023-02-23T12:38:59.830Z,3.73
2023-02-23T12:44:37.976Z,3.90
2023-02-23T12:50:14.525Z,4.57
2023-02-23T12:55:30.056Z,3.33
2023-02-23T13:00:58.438Z,3.20
2023-02-23T13:06:23.586Z,3.40
2023-02-23T13:11:53.473Z,3.50
2023-02-23T13:17:33.103Z,3.70
2023-02-23T13:22:43.463Z,3.60
2023-02-23T13:27:55.364Z,3.40
2023-02-23T13:32:58.394Z,4.20
2023-02-23T13:38:32.305Z,3.77
2023-02-23T13:43:49.710Z,3.00
2023-02-23T13:49:28.575Z,3.13
2023-02-23T13:54:36.644Z,4.83
2023-02-23T13:59:45.648Z,4.60
2023-02-23T14:04:48.017Z,4.40
2023-02-23T14:10:06.709Z,4.23
2023-02-23T14:15:40.669Z,4.43
2023-02-23T14:20:53.179Z,3.70
2023-02-23T14:26:28.801Z,3.50
2023-02-23T14:31:31.997Z,3.43
2023-02-23T14:36:38.551Z,3.40
2023-02-23T14:41:51.480Z,3.33
2023-02-23T14:47:08.552Z,3.20
2023-02-23T14:52:36.144Z,3.00
2023-02-23T14:57:43.942Z,2.67
2023-02-23T15:03:05.805Z,2.47
2023-02-23T15:08:17.346Z,2.30
2023-02-23T15:18:44.280Z,2.23
2023-02-23T15:23:51.148Z,2.80
2023-02-23T15:28:53.774Z,3.03
2023-02-23T15:33:57.798Z,3.50
2023-02-23T15:39:05.233Z,3.60
2023-02-23T15:44:27.526Z,4.10
2023-02-23T15:49:37.981Z,3.57
2023-02-23T15:55:06.507Z,3.83
2023-02-23T16:00:32.743Z,4.47
2023-02-23T16:05:46.971Z,3.83
2023-02-23T16:10:57.751Z,4.17
2023-02-23T16:16:00.232Z,4.23
2023-02-23T16:21:04.865Z,3.93
2023-02-23T16:26:57.492Z,4.40
2023-02-23T16:32:04.134Z,4.30
2023-02-23T16:37:28.013Z,3.77
2023-02-23T16:42:36.030Z,3.63
2023-02-23T16:47:49.997Z,3.80
2023-02-23T16:52:53.497Z,3.40
2023-02-23T16:58:02.646Z,3.80
2023-02-23T17:03:16.464Z,4.47
2023-02-23T17:08:26.155Z,4.20
2023-02-23T17:13:33.290Z,3.90
2023-02-23T17:18:39.589Z,3.83
2023-02-23T17:23:48.380Z,3.60
2023-02-23T17:28:51.874Z,5.17
2023-02-23T17:33:55.389Z,4.10
2023-02-23T17:39:00.436Z,4.27
2023-02-23T17:44:05.786Z,4.73
2023-02-23T17:49:07.860Z,3.97
2023-02-23T17:54:10.962Z,5.20
2023-02-23T17:59:13.487Z,4.20
2023-02-23T18:04:16.653Z,4.70
2023-02-23T18:09:18.798Z,3.83
2023-02-23T18:14:20.881Z,4.27
2023-02-23T18:19:23.774Z,5.07
2023-02-23T18:24:32.409Z,5.27
2023-02-23T18:29:36.257Z,5.47
2023-02-23T18:34:38.717Z,5.00
2023-02-23T18:39:41.473Z,4.97
2023-02-23T18:44:44.761Z,4.90
2023-02-23T18:49:47.675Z,5.00
2023-02-23T18:54:51.358Z,5.40
2023-02-23T18:59:53.901Z,5.20
2023-02-23T19:05:02.791Z,5.80
2023-02-23T19:10:09.536Z,5.90
2023-02-23T19:15:12.790Z,6.00
2023-02-23T19:20:15.287Z,7.03
2023-02-23T19:25:17.883Z,6.97
2023-02-23T19:30:20.446Z,7.17
2023-02-23T19:35:22.912Z,6.70
2023-02-23T19:40:29.262Z,6.30
2023-02-23T19:45:31.786Z,6.10
2023-02-23T19:50:36.072Z,6.07
2023-02-23T19:55:41.801Z,5.77
2023-02-23T20:00:47.295Z,5.67
2023-02-23T20:05:49.460Z,5.63
2023-02-23T20:10:52.614Z,5.40
2023-02-23T20:16:10.991Z,5.33
2023-02-23T20:21:17.571Z,6.73
2023-02-23T20:26:26.632Z,6.60
2023-02-23T20:31:35.185Z,5.77
2023-02-23T20:36:37.750Z,5.50
2023-02-23T20:41:43.471Z,4.03
2023-02-23T20:46:45.732Z,5.57
2023-02-23T20:51:48.696Z,5.87
2023-02-23T20:56:58.935Z,5.10
2023-02-23T21:02:01.838Z,5.50
2023-02-23T21:07:36.666Z,4.70
2023-02-23T21:12:38.797Z,5.67
2023-02-23T21:17:42.306Z,5.73
2023-02-23T21:22:44.824Z,5.90
2023-02-23T21:27:48.256Z,6.43
2023-02-23T21:32:53.233Z,5.20
2023-02-23T21:37:56.913Z,6.07
2023-02-23T21:43:00.568Z,6.30
2023-02-23T21:48:04.487Z,7.30
2023-02-23T21:53:07.712Z,6.93
2023-02-23T21:58:10.119Z,8.30
2023-02-23T22:03:12.618Z,9.40
2023-02-23T22:08:15.907Z,9.23
2023-02-23T22:13:18.090Z,9.73
2023-02-23T22:18:20.193Z,9.90
2023-02-23T22:23:22.389Z,9.33
2023-02-23T22:28:25.991Z,9.73
2023-02-23T22:33:28.061Z,7.90
2023-02-23T22:38:30.868Z,10.40
2023-02-23T22:43:34.401Z,11.37
2023-02-23T22:48:36.766Z,11.10
2023-02-23T22:53:39.672Z,10.40
2023-02-23T22:58:42.424Z,10.97
2023-02-23T23:03:46.695Z,10.30
2023-02-23T23:08:55.739Z,10.30
2023-02-23T23:14:03.253Z,8.73
2023-02-23T23:19:12.444Z,10.70
2023-02-23T23:24:15.674Z,11.40
2023-02-23T23:29:18.179Z,11.40
2023-02-23T23:34:21.803Z,12.27
2023-02-23T23:39:26.346Z,11.63
2023-02-23T23:44:29.604Z,12.27
2023-02-23T23:49:41.073Z,10.17
2023-02-23T23:54:43.702Z,8.87
2023-02-23T23:59:47.522Z,11.73
